Buffalo, WY

5:27 PM MDT on September 23, 2014 (GMT -0600)
Esponda Ranch | Change Station
CLOSE
Current Station
Personal Weather Station
Location: Buffalo, WY
Elevation: 4665 ft
Nearby Weather Stations

Elev 4665 ft 44.32 °N, 106.67 °W | Updated 38 minutes ago

Clear
Clear
74.7 °F
Feels Like 77 °F
N
5.0
Wind Variable Wind from NNW
Gusts 10.0 mph

Today
High -- | Low -- °F
--% Chance of Precip.
Yesterday
High -- | Low -- °F
Precip. -- in
6:55 AM 7:02 PM
Waning Crescent, 0% visible
Pressure 29.95 in
Visibility 10.0 miles
Clouds Clear
Heat Index 77 °F
Dew Point 47 °F
Humidity 38%
Rainfall 0.00 in
Snow Depth 0 in , 1 in , 0 in
UV 2 out of 12
Pollen 5.00 out of 12
Air Quality Not available.
Flu Activity Not available.
METAR KBYG 232253Z AUTO 33007KT 10SM CLR 23/06 A3009 RMK AO2 SLP140 T02280061

More Conditions Fewer Conditions

Pressure 29.95 in
Visibility 10.0 miles
Clouds Clear
Heat Index 77 °F
Dew Point 47 °F
Humidity 38%
Rainfall 0.00 in
Snow Depth 0 in , 1 in , 0 in
UV 2 out of 12
Pollen 5.00 out of 12
Air Quality Not available.
Flu Activity Not available.
METAR KBYG 232253Z AUTO 33007KT 10SM CLR 23/06 A3009 RMK AO2 SLP140 T02280061

More Conditions Fewer Conditions

10-Day Weather Forecast

Almanac

Astronomy

Sep. 23, 2014 Rise Set
Actual Time 6:55 AM MDT 7:02 PM MDT
Civil Twilight 6:26 AM MDT 7:31 PM MDT
Nautical Twilight 5:52 AM MDT 8:05 PM MDT
Astronomical Twilight 5:17 AM MDT 8:39 PM MDT
Moon 6:21 AM MDT 6:41 PM MDT
Length of Visible Light 13h 04m
Length of Day
12h 07m
Tomorrow will be 3m 2s shorter.
Waning Crescent, 0% of the Moon is Illuminated
Today
Waning Crescent
Sep 24
New
Oct 1
First Quarter
Oct 8
Full
Oct 15
Last Quarter

Today's Extremes

State Highs State Lows

Community

WunderPhotos

Upload Photos

1,755,821 photos uploaded!

WunderBlogs® & News

Nearby

Snow Depth

Station Depth Elevation
Loomis Park 0 in 8240 ft
Salt River Summit 0 in 7600 ft
Willow Creek 1 in 8450 ft
South Brush Creek 0 in 8440 ft
Phillips Bench 0 in 8200 ft

Earthquake Activity

City Distance Mag. Time & Date
No recent earthquake activity has been reported nearby.
Minimum magnitude displayed is 2.5.

Coastal Water Temperatures

Place Temperature
No Stations Reporting

Nearby Weather Stations